createdAt,value
2017-04-07T03:00:25.570Z,54.38
2017-04-07T03:00:51.298Z,54.19
2017-04-07T03:01:17.002Z,54.28
2017-04-07T03:01:42.553Z,54.22
2017-04-07T03:02:08.147Z,54.19
2017-04-07T03:02:33.759Z,54.22
2017-04-07T03:02:59.261Z,54.38
2017-04-07T03:03:24.802Z,54.47
2017-04-07T03:03:50.347Z,54.5
2017-04-07T03:04:15.922Z,54.47
2017-04-07T03:04:41.468Z,54.5
2017-04-07T03:05:07.021Z,54.5
2017-04-07T03:05:32.581Z,54.38
2017-04-07T03:05:58.149Z,54.38
2017-04-07T03:06:23.712Z,54.38
2017-04-07T03:06:49.269Z,54.47
2017-04-07T03:07:14.916Z,54.38
2017-04-07T03:07:40.481Z,54.57
2017-04-07T03:08:06.041Z,54.47
2017-04-07T03:08:31.690Z,54.19
2017-04-07T03:08:57.373Z,54.19
2017-04-07T03:09:23.080Z,54.19
2017-04-07T03:09:48.644Z,54.47
2017-04-07T03:10:14.210Z,54.38
2017-04-07T03:10:39.870Z,54.28
2017-04-07T03:11:05.407Z,54.57
2017-04-07T03:11:30.951Z,54.47
2017-04-07T03:11:56.500Z,54.41
2017-04-07T03:12:22.049Z,54.5
2017-04-07T03:12:47.709Z,54.41
2017-04-07T03:13:13.260Z,54.38
2017-04-07T03:13:38.909Z,54.41
2017-04-07T03:14:04.483Z,54.5
2017-04-07T03:14:30.031Z,54.41
2017-04-07T03:14:55.579Z,54.6
2017-04-07T03:15:21.114Z,54.31
2017-04-07T03:15:46.679Z,54.5
2017-04-07T03:16:12.250Z,54.47
2017-04-07T03:16:37.789Z,54.5
2017-04-07T03:17:03.361Z,54.5
2017-04-07T03:17:28.895Z,54.19
2017-04-07T03:17:54.447Z,54.19
2017-04-07T03:18:20.019Z,54.47
2017-04-07T03:18:45.572Z,54.47
2017-04-07T03:19:11.127Z,54.47
2017-04-07T03:19:36.691Z,54.5
2017-04-07T03:20:02.269Z,54.47
2017-04-07T03:20:27.832Z,54.47
2017-04-07T03:20:53.407Z,54.5
2017-04-07T03:21:18.973Z,54.28
2017-04-07T03:21:44.545Z,54.47
2017-04-07T03:22:10.182Z,54.28
2017-04-07T03:22:35.757Z,54.28
2017-04-07T03:23:01.309Z,54.47
2017-04-07T03:23:26.875Z,54.38
2017-04-07T03:23:52.638Z,54.28
2017-04-07T03:24:18.183Z,54.19
2017-04-07T03:24:43.759Z,54.19
2017-04-07T03:25:09.327Z,54.47
2017-04-07T03:25:34.905Z,54.19
2017-04-07T03:26:00.481Z,54.47
2017-04-07T03:26:26.134Z,54.47
2017-04-07T03:26:51.822Z,54.47
2017-04-07T03:27:17.369Z,54.41
2017-04-07T03:27:42.925Z,54.47
2017-04-07T03:28:08.526Z,54.38
2017-04-07T03:28:34.088Z,54.47
2017-04-07T03:28:59.649Z,54.47
2017-04-07T03:29:25.200Z,54.57
2017-04-07T03:29:50.762Z,54.38
2017-04-07T03:30:16.318Z,54.38
2017-04-07T03:30:41.886Z,54.6
2017-04-07T03:31:07.451Z,54.38
2017-04-07T03:31:33.025Z,54.47
2017-04-07T03:31:58.598Z,54.38
2017-04-07T03:32:24.129Z,54.47
2017-04-07T03:32:49.757Z,54.38
2017-04-07T03:33:15.297Z,54.19
2017-04-07T03:33:40.837Z,54.57
2017-04-07T03:34:06.498Z,54.28
2017-04-07T03:34:32.141Z,54.47
2017-04-07T03:34:57.702Z,54.38
2017-04-07T03:35:23.271Z,54.47
2017-04-07T03:35:48.840Z,54.57
2017-04-07T03:36:14.402Z,54.28
2017-04-07T03:36:39.967Z,54.47
2017-04-07T03:37:05.517Z,54.19
2017-04-07T03:37:31.058Z,54.28
2017-04-07T03:37:56.731Z,54.28
2017-04-07T03:38:22.291Z,54.28
2017-04-07T03:38:47.840Z,54.47
2017-04-07T03:39:13.391Z,54.57
2017-04-07T03:39:38.949Z,54.57
2017-04-07T03:40:04.499Z,54.47
2017-04-07T03:40:30.055Z,54.28
2017-04-07T03:40:55.597Z,54.47
2017-04-07T03:41:21.159Z,54.47
2017-04-07T03:41:46.704Z,54.28
2017-04-07T03:42:12.250Z,54.47
2017-04-07T03:42:37.809Z,54.67
2017-04-07T03:43:03.377Z,54.19
2017-04-07T03:43:28.942Z,54.38
2017-04-07T03:43:54.501Z,54.28
2017-04-07T03:44:20.175Z,54.28
2017-04-07T03:44:45.731Z,54.47
2017-04-07T03:45:11.311Z,54.38
2017-04-07T03:45:36.870Z,54.19
2017-04-07T03:46:02.449Z,54.47
2017-04-07T03:46:28.018Z,54.28
2017-04-07T03:46:53.796Z,54.19
2017-04-07T03:47:19.334Z,54.28
2017-04-07T03:47:44.870Z,54.38
2017-04-07T03:48:10.421Z,54.19
2017-04-07T03:48:35.959Z,54.28
2017-04-07T03:49:01.519Z,54.47
2017-04-07T03:49:27.077Z,54.38
2017-04-07T03:49:52.631Z,54.57
2017-04-07T03:50:18.198Z,54.38
2017-04-07T03:50:43.756Z,54.19
2017-04-07T03:51:09.317Z,54.47
2017-04-07T03:51:34.969Z,54.28
2017-04-07T03:52:00.508Z,54.38
2017-04-07T03:52:26.077Z,54.19
2017-04-07T03:52:51.660Z,54.47
2017-04-07T03:53:17.207Z,54.19
2017-04-07T03:53:42.747Z,54.28
2017-04-07T03:54:08.309Z,54.47
2017-04-07T03:54:33.881Z,54.19
2017-04-07T03:54:59.460Z,54.38
2017-04-07T03:55:25.151Z,54.47
2017-04-07T03:55:50.710Z,54.47
2017-04-07T03:56:16.401Z,54.57
2017-04-07T03:56:41.985Z,54.47
2017-04-07T03:57:07.538Z,54.47
2017-04-07T03:57:33.083Z,54.47
2017-04-07T03:57:58.756Z,54.38
2017-04-07T03:58:24.303Z,54.38
2017-04-07T03:58:49.856Z,54.38
2017-04-07T03:59:15.604Z,54.19
2017-04-07T03:59:41.173Z,54.28
2017-04-07T04:00:06.728Z,54.47
2017-04-07T04:00:32.294Z,54.47
2017-04-07T04:00:57.859Z,54.28
2017-04-07T04:01:23.417Z,54.38
2017-04-07T04:01:48.974Z,54.38
2017-04-07T04:02:14.538Z,54.19
2017-04-07T04:02:40.092Z,54.38
2017-04-07T04:03:05.686Z,54.57
2017-04-07T04:03:31.268Z,54.19
2017-04-07T04:03:56.829Z,54.47
2017-04-07T04:04:22.411Z,54.47
2017-04-07T04:04:47.971Z,54.19
2017-04-07T04:05:13.546Z,54.28
2017-04-07T04:05:39.109Z,54.19
2017-04-07T04:06:04.667Z,54.28
2017-04-07T04:06:30.216Z,54.38
2017-04-07T04:06:55.788Z,54.47
2017-04-07T04:07:21.358Z,54.47
2017-04-07T04:07:47.045Z,54.38
2017-04-07T04:08:12.740Z,54.47
2017-04-07T04:08:38.312Z,54.38
2017-04-07T04:09:03.857Z,54.47
2017-04-07T04:09:29.387Z,54.47
2017-04-07T04:09:54.936Z,54.38
2017-04-07T04:10:20.475Z,54.38
2017-04-07T04:10:46.021Z,54.47
2017-04-07T04:11:11.570Z,54.09
2017-04-07T04:11:37.124Z,54.47
2017-04-07T04:12:02.655Z,54.38
2017-04-07T04:12:28.219Z,54.47
2017-04-07T04:12:53.816Z,54.09
2017-04-07T04:13:19.399Z,54.28
2017-04-07T04:13:44.937Z,54.09
2017-04-07T04:14:10.630Z,54.28
2017-04-07T04:14:36.168Z,54.38
2017-04-07T04:15:01.706Z,54.28
2017-04-07T04:15:27.258Z,54.09
2017-04-07T04:15:52.913Z,54.38
2017-04-07T04:16:18.513Z,54.47
2017-04-07T04:16:44.058Z,54.28
2017-04-07T04:17:09.608Z,54
2017-04-07T04:17:35.166Z,54.28
2017-04-07T04:18:00.731Z,54.28
2017-04-07T04:18:26.271Z,54.28
2017-04-07T04:18:51.828Z,54.28
2017-04-07T04:19:17.388Z,54.19
2017-04-07T04:19:42.960Z,54.28
2017-04-07T04:20:08.600Z,54.19
2017-04-07T04:20:34.160Z,54.28
2017-04-07T04:20:59.716Z,54.09
2017-04-07T04:21:25.308Z,54.09
2017-04-07T04:21:50.881Z,54.38
2017-04-07T04:22:16.447Z,54.38
2017-04-07T04:22:42.010Z,54.38
2017-04-07T04:23:07.575Z,54.38
2017-04-07T04:23:33.166Z,54.19
2017-04-07T04:23:58.727Z,54.19
2017-04-07T04:24:24.341Z,54.09
2017-04-07T04:24:49.898Z,54.19
2017-04-07T04:25:15.454Z,54.19
2017-04-07T04:25:41.130Z,54.38
2017-04-07T04:26:06.676Z,54.09
2017-04-07T04:26:32.383Z,54.09
2017-04-07T04:26:57.974Z,54.38
2017-04-07T04:27:23.537Z,54.38
2017-04-07T04:27:49.190Z,54.19
2017-04-07T04:28:14.810Z,54.28
2017-04-07T04:28:40.371Z,54.57
2017-04-07T04:29:05.944Z,54.57
2017-04-07T04:29:31.513Z,54.47
2017-04-07T04:29:57.107Z,54.77
2017-04-07T04:30:22.683Z,54.57
2017-04-07T04:30:48.267Z,54.57
2017-04-07T04:31:13.831Z,54.77
2017-04-07T04:31:39.382Z,54.47
2017-04-07T04:32:04.950Z,54.57
2017-04-07T04:32:30.512Z,54.47
2017-04-07T04:32:56.090Z,54.57
2017-04-07T04:33:21.704Z,54.57
2017-04-07T04:33:47.280Z,54.67
2017-04-07T04:34:12.848Z,54.96
2017-04-07T04:34:38.803Z,54.67
2017-04-07T04:35:04.382Z,54.96
2017-04-07T04:35:29.934Z,55.24
2017-04-07T04:35:55.488Z,55.15
2017-04-07T04:36:21.047Z,54.86
2017-04-07T04:36:46.611Z,54.96
2017-04-07T04:37:45.016Z,54.96
2017-04-07T04:38:37.997Z,55.44
2017-04-07T04:39:03.579Z,55.15
2017-04-07T04:39:29.166Z,55.34
2017-04-07T04:39:54.710Z,55.05
2017-04-07T04:40:20.264Z,54.96
2017-04-07T04:40:45.829Z,54.96
2017-04-07T04:41:11.434Z,54.96
2017-04-07T04:41:37.002Z,55.15
2017-04-07T04:42:02.561Z,54.96
2017-04-07T04:42:28.136Z,55.05
2017-04-07T04:42:53.707Z,55.05
2017-04-07T04:43:19.273Z,54.96
2017-04-07T04:43:44.831Z,54.77
2017-04-07T04:44:10.388Z,54.77
2017-04-07T04:44:35.963Z,55.34
2017-04-07T04:45:01.540Z,55.15
2017-04-07T04:45:27.101Z,55.34
2017-04-07T04:45:52.692Z,55.24
2017-04-07T04:46:18.357Z,54.86
2017-04-07T04:46:43.976Z,54.96
2017-04-07T04:47:09.537Z,55.24
2017-04-07T04:47:35.110Z,55.53
2017-04-07T04:48:00.682Z,55.44
2017-04-07T04:48:26.251Z,55.15
2017-04-07T04:48:51.799Z,55.34
2017-04-07T04:49:17.349Z,55.24
2017-04-07T04:49:42.914Z,55.24
2017-04-07T04:50:08.481Z,55.24
2017-04-07T04:50:34.028Z,55.24
2017-04-07T04:50:59.590Z,55.73
2017-04-07T04:51:25.155Z,55.73
2017-04-07T04:51:50.721Z,55.73
2017-04-07T04:52:16.289Z,55.05
2017-04-07T04:52:41.907Z,55.44
2017-04-07T04:53:07.473Z,55.82
2017-04-07T04:53:33.041Z,55.82
2017-04-07T04:53:58.720Z,55.53
2017-04-07T04:55:12.460Z,55.91
2017-04-07T04:55:38.137Z,55.82
2017-04-07T04:56:03.790Z,55.82
2017-04-07T04:56:29.383Z,55.82
2017-04-07T04:56:54.921Z,55.73
2017-04-07T04:57:20.476Z,55.63
2017-04-07T04:57:46.023Z,55.91
2017-04-07T04:58:11.568Z,55.91
2017-04-07T04:58:37.116Z,55.91
2017-04-07T04:59:02.682Z,55.82
2017-04-07T04:59:28.352Z,55.63
2017-04-07T04:59:53.960Z,55.91
2017-04-07T05:00:19.511Z,55.73
2017-04-07T05:00:45.071Z,55.73
2017-04-07T05:01:10.748Z,55.63
2017-04-07T05:01:36.297Z,55.73
2017-04-07T05:02:01.852Z,55.53
2017-04-07T05:02:27.440Z,55.63
2017-04-07T05:02:53.011Z,55.73
2017-04-07T05:03:18.561Z,55.82
2017-04-07T05:03:44.130Z,55.82
2017-04-07T05:04:09.707Z,55.82
2017-04-07T05:04:35.259Z,55.73
2017-04-07T05:05:00.800Z,55.82
2017-04-07T05:05:26.335Z,55.34
2017-04-07T05:05:51.909Z,55.24
2017-04-07T05:06:17.456Z,55.15
2017-04-07T05:06:43.011Z,55.05
2017-04-07T05:07:08.582Z,55.15
2017-04-07T05:07:34.139Z,55.34
2017-04-07T05:07:59.681Z,55.44
2017-04-07T05:08:25.219Z,55.15
2017-04-07T05:08:50.757Z,55.34
2017-04-07T05:09:16.327Z,55.34
2017-04-07T05:09:41.893Z,54.77
2017-04-07T05:10:07.453Z,55.05
2017-04-07T05:10:33.004Z,55.05
2017-04-07T05:10:58.560Z,54.96
2017-04-07T05:11:24.227Z,55.15
2017-04-07T05:11:49.868Z,55.24
2017-04-07T05:12:15.428Z,55.34
2017-04-07T05:12:41.003Z,55.44
2017-04-07T05:13:06.659Z,55.05
2017-04-07T05:13:32.245Z,55.05
2017-04-07T05:14:50.570Z,54.47
2017-04-07T05:15:16.140Z,54.67
2017-04-07T05:15:41.701Z,54.57
2017-04-07T05:16:07.275Z,54.28
2017-04-07T05:16:32.918Z,54.28
2017-04-07T05:16:58.500Z,54.09
2017-04-07T05:17:24.088Z,54.28
2017-04-07T05:17:50.167Z,54.28
2017-04-07T05:18:15.749Z,54
2017-04-07T05:18:41.978Z,54.28
2017-04-07T05:19:07.548Z,54.28
2017-04-07T05:19:33.119Z,54.19
2017-04-07T05:19:59.294Z,54.28
2017-04-07T05:20:24.915Z,54.47
2017-04-07T05:20:51.124Z,54.38
2017-04-07T05:21:16.710Z,54.28
2017-04-07T05:21:42.259Z,54.47
2017-04-07T05:22:08.420Z,54.28
2017-04-07T05:22:34.026Z,54.47
2017-04-07T05:23:00.268Z,54.57
2017-04-07T05:23:25.815Z,54.38
2017-04-07T05:23:52.038Z,54.28
2017-04-07T05:24:17.610Z,54.28
2017-04-07T05:24:43.168Z,54.47
2017-04-07T05:25:09.385Z,54.28
2017-04-07T05:25:34.973Z,54.38
2017-04-07T05:26:01.189Z,54.47
2017-04-07T05:26:26.860Z,54.47
2017-04-07T05:26:52.444Z,54.47
2017-04-07T05:27:18.504Z,54.47
2017-04-07T05:27:44.122Z,54.28
2017-04-07T05:28:10.337Z,54.57
2017-04-07T05:28:35.898Z,54.47
2017-04-07T05:29:02.131Z,54.38
2017-04-07T05:29:27.714Z,54.38
2017-04-07T05:29:53.375Z,54.47
2017-04-07T05:30:19.446Z,54.28
2017-04-07T05:30:45.002Z,54.38
2017-04-07T05:31:11.260Z,54.47
2017-04-07T05:31:36.839Z,54.38
2017-04-07T05:32:02.410Z,54.38
2017-04-07T05:32:28.589Z,54.57
2017-04-07T05:32:54.178Z,54.38
2017-04-07T05:33:20.413Z,54.38
2017-04-07T05:33:45.978Z,54.38
2017-04-07T05:34:12.217Z,54.38
2017-04-07T05:34:37.804Z,54.38
2017-04-07T05:35:03.412Z,54.38
2017-04-07T05:35:29.557Z,54.67
2017-04-07T05:35:55.123Z,54.28
2017-04-07T05:36:21.363Z,54.47
2017-04-07T05:36:46.932Z,54.38
2017-04-07T05:37:12.531Z,54.47
2017-04-07T05:37:38.720Z,54.38
2017-04-07T05:38:04.309Z,54
2017-04-07T05:38:30.501Z,54.38
2017-04-07T05:38:56.128Z,54.28
2017-04-07T05:39:22.282Z,54.38
2017-04-07T05:39:47.863Z,54.38
2017-04-07T05:40:13.451Z,54.38
2017-04-07T05:40:39.630Z,54.38
2017-04-07T05:41:05.182Z,54.38
2017-04-07T05:41:31.428Z,54.57
2017-04-07T05:41:56.987Z,54.38
2017-04-07T05:42:22.689Z,54.38
2017-04-07T05:42:48.761Z,54.38
2017-04-07T05:43:14.333Z,54.47
2017-04-07T05:43:40.560Z,54.19
2017-04-07T05:44:06.137Z,54.38
2017-04-07T05:44:32.376Z,54.19
2017-04-07T05:44:57.949Z,54.19
2017-04-07T05:45:23.549Z,54.38
2017-04-07T05:45:49.711Z,54.19
2017-04-07T05:46:15.271Z,54.47
2017-04-07T05:46:41.509Z,54.38
2017-04-07T05:47:07.069Z,54.38
2017-04-07T05:47:32.722Z,54.19
2017-04-07T05:47:58.819Z,54.67
2017-04-07T05:48:24.453Z,54.28
2017-04-07T05:48:50.719Z,54.38
2017-04-07T05:49:16.377Z,54.19
2017-04-07T05:49:42.438Z,54.38
2017-04-07T05:50:08.053Z,54.38
2017-04-07T05:50:33.617Z,54.67
2017-04-07T05:50:59.779Z,54.67
2017-04-07T05:51:25.342Z,54.38
2017-04-07T05:51:51.580Z,54.38
2017-04-07T05:52:17.158Z,54.47
2017-04-07T05:52:42.732Z,54.28
2017-04-07T05:53:08.922Z,54.28
2017-04-07T05:53:34.601Z,54.19
2017-04-07T05:54:00.721Z,54.47
2017-04-07T05:54:26.294Z,54.47
2017-04-07T05:54:52.531Z,54.47
2017-04-07T05:55:18.087Z,54.38
2017-04-07T05:55:43.648Z,54.47
2017-04-07T05:56:09.864Z,54.47
2017-04-07T05:56:35.438Z,54.57
2017-04-07T05:57:01.670Z,54.28
2017-04-07T05:57:27.230Z,54.38
2017-04-07T05:57:52.791Z,54.38
2017-04-07T05:58:19.018Z,54.47
2017-04-07T05:58:49.941Z,54.28
2017-04-07T05:59:15.920Z,54.19
2017-04-07T05:59:41.575Z,54.19
2017-04-07T06:00:07.710Z,54.38
2017-04-07T06:01:01.032Z,54.38
2017-04-07T06:01:26.614Z,54.38
2017-04-07T06:01:52.157Z,54.38
2017-04-07T06:02:17.718Z,54.19
2017-04-07T06:02:43.277Z,54.38
2017-04-07T06:03:08.851Z,54.28
2017-04-07T06:03:34.443Z,54.47
2017-04-07T06:03:59.981Z,54.38
2017-04-07T06:04:25.537Z,54.38
2017-04-07T06:04:51.085Z,54.38
2017-04-07T06:05:16.647Z,54.38
2017-04-07T06:05:42.212Z,54.28
2017-04-07T06:06:07.848Z,54.47
2017-04-07T06:06:33.412Z,54.47
2017-04-07T06:06:58.993Z,54.38
2017-04-07T06:07:24.569Z,54.38
2017-04-07T06:07:50.125Z,54.47
2017-04-07T06:08:15.692Z,54.47
2017-04-07T06:08:41.277Z,54.38
2017-04-07T06:09:06.853Z,54.47
2017-04-07T06:09:32.431Z,54.47
2017-04-07T06:09:57.996Z,54.47
2017-04-07T06:10:23.565Z,54.47
2017-04-07T06:10:49.112Z,54.47
2017-04-07T06:11:14.677Z,54.57
2017-04-07T06:11:40.393Z,54.47
2017-04-07T06:12:05.933Z,54.47
2017-04-07T06:12:31.488Z,54.38
2017-04-07T06:12:57.036Z,54.38
2017-04-07T06:14:48.322Z,54.47
2017-04-07T06:15:13.962Z,54.47
2017-04-07T06:15:39.544Z,54.47
2017-04-07T06:16:05.098Z,54.47
2017-04-07T06:16:30.669Z,54.47
2017-04-07T06:16:56.242Z,54.38
2017-04-07T06:17:22.517Z,54.38
2017-04-07T06:17:48.091Z,54.38
2017-04-07T06:18:13.638Z,54.38
2017-04-07T06:18:39.221Z,54.28
2017-04-07T06:19:04.800Z,54.47
2017-04-07T06:19:30.361Z,54.28
2017-04-07T06:19:55.920Z,54.38
2017-04-07T06:20:21.484Z,54.47
2017-04-07T06:20:47.047Z,54.38
2017-04-07T06:21:12.669Z,54.47
2017-04-07T06:21:38.263Z,54.38
2017-04-07T06:22:03.818Z,54.47
2017-04-07T06:22:29.412Z,54.47
2017-04-07T06:22:55.072Z,54.38
2017-04-07T06:23:20.631Z,54.38
2017-04-07T06:23:46.202Z,54.47
2017-04-07T06:24:11.804Z,54.28
2017-04-07T06:24:37.370Z,54.19
2017-04-07T06:25:02.971Z,54.28
2017-04-07T06:25:28.700Z,54.19
2017-04-07T06:25:54.266Z,54.47
2017-04-07T06:26:19.822Z,54.19
2017-04-07T06:26:45.496Z,54.28
2017-04-07T06:27:11.118Z,54.28
2017-04-07T06:27:36.694Z,54.28
2017-04-07T06:28:02.378Z,54.19
2017-04-07T06:28:27.962Z,54.57
2017-04-07T06:28:53.517Z,54.19
2017-04-07T06:29:19.077Z,54.47
2017-04-07T06:29:44.711Z,54.47
2017-04-07T06:30:10.272Z,54.47
2017-04-07T06:30:35.833Z,54.28
2017-04-07T06:31:01.482Z,54.47
2017-04-07T06:31:27.090Z,54.19
2017-04-07T06:31:52.649Z,54.28
2017-04-07T06:32:18.213Z,54.28
2017-04-07T06:32:43.762Z,54.28
2017-04-07T06:33:09.310Z,54.19
2017-04-07T06:33:34.865Z,54.28
2017-04-07T06:34:00.431Z,54.28
2017-04-07T06:34:25.977Z,54.28
2017-04-07T06:34:51.548Z,54.19
2017-04-07T06:35:17.142Z,54.19
2017-04-07T06:35:42.676Z,54.28
2017-04-07T06:36:08.228Z,54.38
2017-04-07T06:36:33.795Z,54.47
2017-04-07T06:36:59.364Z,54.28
2017-04-07T06:37:24.941Z,54.28
2017-04-07T06:37:50.500Z,54.38
2017-04-07T06:38:16.061Z,54.38
2017-04-07T06:38:41.627Z,54.47
2017-04-07T06:39:07.194Z,54.47
2017-04-07T06:39:32.815Z,54.47
2017-04-07T06:39:58.358Z,54.28
2017-04-07T06:40:23.942Z,54.47
2017-04-07T06:40:49.593Z,54.47
2017-04-07T06:41:15.147Z,54.09
2017-04-07T06:41:40.739Z,54.47
2017-04-07T06:42:06.308Z,54.47
2017-04-07T06:42:31.863Z,54.38
2017-04-07T06:42:57.609Z,54.38
2017-04-07T06:43:23.235Z,54.47
2017-04-07T06:43:48.811Z,54.28
2017-04-07T06:44:14.371Z,54.38
2017-04-07T06:44:39.915Z,54.28
2017-04-07T06:45:05.498Z,54.19
2017-04-07T06:45:31.048Z,54.38
2017-04-07T06:45:56.721Z,54.38
2017-04-07T06:46:22.242Z,54.28
2017-04-07T06:46:47.800Z,54.28
2017-04-07T06:47:13.420Z,54.28
2017-04-07T06:47:39.142Z,54.28
2017-04-07T06:48:04.789Z,54.38
2017-04-07T06:48:30.500Z,54.28
2017-04-07T06:48:56.071Z,54.28
2017-04-07T06:49:21.655Z,54.28
2017-04-07T06:49:47.270Z,54.38
2017-04-07T06:50:12.818Z,54.19
2017-04-07T06:50:38.392Z,54.28
2017-04-07T06:51:03.951Z,54.38
2017-04-07T06:51:29.662Z,54.28
2017-04-07T06:51:55.287Z,54.19
2017-04-07T06:52:20.870Z,54
2017-04-07T06:52:46.447Z,53.9
2017-04-07T06:53:11.988Z,54
2017-04-07T06:53:37.693Z,54
2017-04-07T06:54:03.258Z,54.28
2017-04-07T06:54:28.797Z,54.09
2017-04-07T06:54:54.359Z,54
2017-04-07T06:55:19.909Z,54.28
2017-04-07T06:55:45.454Z,54
2017-04-07T06:56:11.019Z,54.28
2017-04-07T06:56:36.642Z,54.28
2017-04-07T06:57:02.269Z,54.38
2017-04-07T06:57:27.856Z,54.38
2017-04-07T06:57:53.420Z,54.19
2017-04-07T06:58:19.003Z,54.47
2017-04-07T06:58:44.559Z,54.19
2017-04-07T06:59:10.114Z,54.19
2017-04-07T06:59:35.692Z,54.19
2017-04-07T07:00:01.263Z,54.19
2017-04-07T07:00:26.822Z,54.19
2017-04-07T07:00:52.391Z,54.38
2017-04-07T07:01:17.951Z,54.19
2017-04-07T07:01:43.525Z,54.19
2017-04-07T07:02:09.288Z,54.19
2017-04-07T07:02:34.836Z,54.47
2017-04-07T07:03:00.389Z,54.19
2017-04-07T07:03:25.980Z,54.57
2017-04-07T07:03:51.542Z,54.28
2017-04-07T07:04:17.189Z,54.09
2017-04-07T07:04:42.748Z,54.47
2017-04-07T07:05:08.307Z,54.57
2017-04-07T07:05:33.938Z,54.67
2017-04-07T07:05:59.506Z,54.47
2017-04-07T07:06:25.627Z,54.47
2017-04-07T07:06:51.190Z,54.67
2017-04-07T07:07:16.789Z,54.67
2017-04-07T07:07:42.329Z,54.67
2017-04-07T07:08:07.880Z,54.67
2017-04-07T07:08:33.408Z,54.77
2017-04-07T07:08:59.049Z,54.47
2017-04-07T07:09:24.597Z,54.47
2017-04-07T07:09:50.178Z,54.67
2017-04-07T07:10:15.751Z,54.57
2017-04-07T07:10:41.300Z,54.86
2017-04-07T07:11:06.861Z,54.96
2017-04-07T07:11:32.427Z,54.86
2017-04-07T07:11:57.987Z,54.86
2017-04-07T07:12:23.650Z,55.05
2017-04-07T07:12:49.220Z,54.83
2017-04-07T07:13:14.773Z,55.05
2017-04-07T07:13:40.442Z,54.96
2017-04-07T07:14:06.061Z,54.86
2017-04-07T07:14:31.621Z,55.24
2017-04-07T07:14:57.188Z,55.44
2017-04-07T07:15:22.766Z,55.44
2017-04-07T07:15:48.317Z,55.44
2017-04-07T07:16:14.012Z,55.24
2017-04-07T07:16:39.600Z,55.41
2017-04-07T07:17:05.159Z,55.15
2017-04-07T07:17:30.727Z,54.96
2017-04-07T07:17:56.281Z,55.15
2017-04-07T07:18:21.901Z,55.34
2017-04-07T07:18:47.476Z,55.05
2017-04-07T07:19:13.072Z,55.24
2017-04-07T07:19:38.851Z,55.05
2017-04-07T07:20:04.409Z,55.24
2017-04-07T07:20:29.977Z,54.96
2017-04-07T07:20:55.549Z,55.15
2017-04-07T07:21:21.182Z,55.05
2017-04-07T07:21:46.750Z,55.02
2017-04-07T07:22:12.311Z,55.05
2017-04-07T07:22:37.872Z,55.05
2017-04-07T07:23:03.686Z,55.05
2017-04-07T07:23:29.266Z,54.96
2017-04-07T07:23:54.831Z,55.05
2017-04-07T07:24:20.367Z,54.96
2017-04-07T07:24:46.023Z,54.96
2017-04-07T07:25:11.621Z,55.24
2017-04-07T07:25:37.178Z,54.77
2017-04-07T07:26:02.925Z,55.15
2017-04-07T07:26:28.468Z,54.96
2017-04-07T07:26:54.093Z,54.77
2017-04-07T07:27:19.729Z,55.24
2017-04-07T07:27:45.268Z,55.05
2017-04-07T07:28:10.940Z,54.86
2017-04-07T07:28:36.498Z,54.86
2017-04-07T07:29:02.053Z,55.34
2017-04-07T07:29:27.627Z,55.24
2017-04-07T07:29:53.178Z,55.34
2017-04-07T07:30:18.722Z,55.05
2017-04-07T07:30:44.266Z,55.05
2017-04-07T07:31:09.838Z,55.34
2017-04-07T07:31:35.394Z,55.24
2017-04-07T07:32:01.040Z,55.34
2017-04-07T07:32:26.596Z,55.15
2017-04-07T07:32:52.159Z,55.44
2017-04-07T07:33:17.744Z,55.44
2017-04-07T07:33:43.339Z,55.15
2017-04-07T07:34:08.906Z,55.15
2017-04-07T07:34:34.462Z,55.15
2017-04-07T07:35:00.050Z,54.96
2017-04-07T07:35:25.667Z,55.24
2017-04-07T07:35:51.234Z,55.44
2017-04-07T07:36:16.782Z,55.24
2017-04-07T07:36:42.327Z,54.96
2017-04-07T07:37:07.898Z,54.96
2017-04-07T07:37:33.458Z,55.15
2017-04-07T07:37:59.007Z,55.24
2017-04-07T07:38:24.548Z,55.05
2017-04-07T07:38:50.109Z,55.24
2017-04-07T07:39:15.682Z,55.34
2017-04-07T07:39:41.269Z,55.15
2017-04-07T07:40:06.848Z,55.24
2017-04-07T07:40:32.405Z,55.44
2017-04-07T07:40:57.988Z,55.44
2017-04-07T07:41:23.565Z,55.53
2017-04-07T07:41:49.126Z,55.15
2017-04-07T07:42:14.709Z,55.02
2017-04-07T07:42:40.281Z,55.24
2017-04-07T07:43:05.853Z,55.24
2017-04-07T07:43:31.424Z,55.34
2017-04-07T07:43:57.001Z,55.53
2017-04-07T07:44:22.571Z,55.34
2017-04-07T07:44:48.238Z,55.82
2017-04-07T07:45:13.812Z,55.44
2017-04-07T07:45:39.376Z,55.53
2017-04-07T07:46:04.934Z,55.53
2017-04-07T07:46:30.560Z,55.32
2017-04-07T07:46:56.219Z,55.82
2017-04-07T07:47:21.770Z,55.91
2017-04-07T07:47:47.354Z,55.82
2017-04-07T07:48:12.981Z,55.73
2017-04-07T07:48:38.497Z,55.82
2017-04-07T07:49:04.069Z,55.82
2017-04-07T07:49:29.650Z,55.73
2017-04-07T07:49:55.260Z,55.91
2017-04-07T07:50:20.822Z,55.91
2017-04-07T07:51:21.285Z,56.01
2017-04-07T07:51:46.873Z,55.82
2017-04-07T07:52:12.429Z,56.01
2017-04-07T07:53:20.729Z,55.82
2017-04-07T07:53:46.294Z,55.73
2017-04-07T07:54:11.870Z,55.53
2017-04-07T07:54:37.469Z,55.53
2017-04-07T07:55:03.055Z,55.63
2017-04-07T07:55:28.600Z,55.82
2017-04-07T07:55:54.148Z,55.63
2017-04-07T07:56:19.704Z,55.73
2017-04-07T07:57:33.363Z,55.82
2017-04-07T07:57:58.897Z,55.73
2017-04-07T07:58:24.451Z,55.73
2017-04-07T07:58:50.017Z,55.63
2017-04-07T07:59:15.583Z,55.73
2017-04-07T07:59:41.149Z,55.73
2017-04-07T08:00:06.740Z,55.73
2017-04-07T08:00:32.278Z,55.73
2017-04-07T08:00:57.847Z,55.53
2017-04-07T08:01:23.461Z,55.82
2017-04-07T08:01:49.019Z,55.73
2017-04-07T08:02:14.682Z,55.82
2017-04-07T08:02:40.240Z,55.91
2017-04-07T08:03:05.787Z,55.73
2017-04-07T08:03:31.342Z,55.73
2017-04-07T08:03:56.915Z,55.73
2017-04-07T08:04:22.486Z,55.63
2017-04-07T08:04:48.067Z,55.53
2017-04-07T08:05:13.608Z,55.73
2017-04-07T08:05:39.261Z,55.73
2017-04-07T08:06:04.811Z,55.73
2017-04-07T08:06:30.361Z,55.63
2017-04-07T08:06:55.924Z,55.91
2017-04-07T08:07:21.642Z,55.73
2017-04-07T08:07:47.221Z,55.91
2017-04-07T08:08:12.787Z,55.91
2017-04-07T08:08:38.356Z,55.89
2017-04-07T08:09:04.007Z,55.69
2017-04-07T08:09:29.723Z,55.91
2017-04-07T08:09:55.279Z,55.91
2017-04-07T08:10:20.868Z,55.82
2017-04-07T08:10:46.440Z,55.91
2017-04-07T08:11:11.999Z,56.01
2017-04-07T08:11:37.555Z,55.63
2017-04-07T08:12:03.133Z,55.91
2017-04-07T08:12:28.687Z,55.73
2017-04-07T08:12:54.246Z,55.63
2017-04-07T08:13:19.789Z,55.91
2017-04-07T08:13:45.344Z,55.82
2017-04-07T08:14:10.984Z,55.73
2017-04-07T08:14:36.590Z,55.82
2017-04-07T08:15:02.143Z,55.89
2017-04-07T08:15:27.710Z,55.91
2017-04-07T08:15:53.289Z,55.51
2017-04-07T08:16:18.861Z,55.79
2017-04-07T08:16:44.477Z,55.82
2017-04-07T08:17:10.153Z,55.82
2017-04-07T08:17:35.705Z,55.51
2017-04-07T08:18:01.259Z,55.89
2017-04-07T08:18:26.836Z,55.91
2017-04-07T08:18:52.400Z,55.41
2017-04-07T08:19:17.952Z,55.69
2017-04-07T08:19:43.509Z,55.82
2017-04-07T08:20:09.069Z,55.82
2017-04-07T08:20:34.658Z,55.91
2017-04-07T08:21:00.308Z,55.32
2017-04-07T08:21:25.860Z,55.82
2017-04-07T08:21:51.409Z,56.11
2017-04-07T08:22:16.971Z,55.79
2017-04-07T08:22:42.538Z,55.73
2017-04-07T08:23:08.110Z,55.91
2017-04-07T08:23:33.673Z,55.91
2017-04-07T08:23:59.212Z,55.82
2017-04-07T08:24:24.865Z,55.53
2017-04-07T08:24:50.438Z,55.51
2017-04-07T08:25:15.980Z,55.82
2017-04-07T08:25:41.533Z,55.53
2017-04-07T08:26:07.075Z,55.51
2017-04-07T08:26:32.629Z,55.73
2017-04-07T08:26:58.272Z,55.82
2017-04-07T08:27:23.845Z,55.82
2017-04-07T08:27:49.369Z,55.91
2017-04-07T08:28:14.930Z,55.91
2017-04-07T08:28:40.477Z,55.82
2017-04-07T08:29:06.098Z,55.73
2017-04-07T08:29:31.633Z,55.73
2017-04-07T08:29:57.239Z,55.69
2017-04-07T08:30:22.867Z,55.73
2017-04-07T08:30:48.447Z,55.73
2017-04-07T08:31:14.005Z,56.01
2017-04-07T08:31:39.776Z,55.82
2017-04-07T08:32:05.320Z,55.91
2017-04-07T08:32:30.874Z,56.01
2017-04-07T08:32:56.437Z,56.01
2017-04-07T08:33:22.040Z,55.82
2017-04-07T08:33:47.605Z,55.63
2017-04-07T08:34:13.171Z,55.82
2017-04-07T08:34:38.759Z,55.82
2017-04-07T08:35:04.360Z,55.91
2017-04-07T08:35:29.890Z,55.91
2017-04-07T08:35:55.438Z,55.91
2017-04-07T08:36:21.005Z,55.91
2017-04-07T08:36:46.568Z,55.82
2017-04-07T08:37:12.137Z,55.91